createdAt,value
2023-05-17T00:00:23.786Z,98836.63
2023-05-17T00:03:25.776Z,98832.94
2023-05-17T00:06:27.305Z,98841.78
2023-05-17T00:09:28.734Z,98838.16
2023-05-17T00:12:30.097Z,98839.88
2023-05-17T00:15:31.443Z,98840.84
2023-05-17T00:18:32.888Z,98845.91
2023-05-17T00:21:34.357Z,98852.28
2023-05-17T00:24:35.763Z,98849.69
2023-05-17T00:27:37.193Z,98849.44
2023-05-17T00:30:38.626Z,98847.56
2023-05-17T00:33:40.065Z,98849.69
2023-05-17T00:36:41.476Z,98855.59
2023-05-17T00:39:42.913Z,98856.22
2023-05-17T00:42:44.344Z,98857.69
2023-05-17T00:45:48.345Z,98859.31
2023-05-17T00:48:49.770Z,98866.97
2023-05-17T00:51:51.210Z,98857.41
2023-05-17T00:54:52.608Z,98852.97
2023-05-17T00:57:54.041Z,98865.84
2023-05-17T01:00:55.444Z,98854.78
2023-05-17T01:03:57.095Z,98859.34
2023-05-17T01:06:58.852Z,98860.41
2023-05-17T01:10:00.285Z,98862.69
2023-05-17T01:13:04.201Z,98863.75
2023-05-17T01:16:09.113Z,98869.00
2023-05-17T01:19:19.750Z,98875.31
2023-05-17T01:22:33.219Z,98873.25
2023-05-17T01:25:47.071Z,98879.09
2023-05-17T01:28:49.648Z,98878.41
2023-05-17T01:31:51.119Z,98873.25
2023-05-17T01:34:52.567Z,98884.44
2023-05-17T01:37:54.325Z,98890.25
2023-05-17T01:40:56.893Z,98878.97
2023-05-17T01:44:17.028Z,98877.16
2023-05-17T01:47:21.174Z,98879.06
2023-05-17T01:50:23.695Z,98879.97
2023-05-17T01:53:33.256Z,98876.50
2023-05-17T01:56:34.800Z,98881.56
2023-05-17T01:59:36.247Z,98875.50
2023-05-17T02:02:37.715Z,98879.91
2023-05-17T02:05:39.192Z,98880.06
2023-05-17T02:08:40.696Z,98882.81
2023-05-17T02:11:42.103Z,98873.59
2023-05-17T02:14:43.509Z,98879.59
2023-05-17T02:17:45.916Z,98877.09
2023-05-17T02:20:47.437Z,98861.69
2023-05-17T02:23:48.878Z,98859.13
2023-05-17T02:26:50.361Z,98865.16
2023-05-17T02:29:51.778Z,98871.13
2023-05-17T02:32:53.345Z,98885.34
2023-05-17T02:35:54.827Z,98884.38
2023-05-17T02:38:56.195Z,98877.03
2023-05-17T02:41:57.606Z,98882.56
2023-05-17T02:44:59.001Z,98882.81
2023-05-17T02:48:00.444Z,98883.19
2023-05-17T02:51:02.083Z,98885.31
2023-05-17T02:54:03.513Z,98881.63
2023-05-17T02:57:05.135Z,98890.19
2023-05-17T03:00:07.022Z,98888.25
2023-05-17T03:03:08.484Z,98887.47
2023-05-17T03:06:09.964Z,98899.75
2023-05-17T03:09:11.350Z,98901.47
2023-05-17T03:12:12.729Z,98904.41
2023-05-17T03:15:14.247Z,98897.63
2023-05-17T03:18:15.898Z,98903.78
2023-05-17T03:21:17.433Z,98896.00
2023-05-17T03:24:18.851Z,98896.22
2023-05-17T03:27:20.305Z,98898.00
2023-05-17T03:30:21.812Z,98903.75
2023-05-17T03:33:23.360Z,98892.63
2023-05-17T03:36:24.803Z,98896.09
2023-05-17T03:39:26.200Z,98898.69
2023-05-17T03:42:27.623Z,98900.03
2023-05-17T03:45:29.182Z,98902.72
2023-05-17T03:48:31.409Z,98902.94
2023-05-17T03:51:33.984Z,98907.94
2023-05-17T03:54:36.499Z,98913.00
2023-05-17T03:57:37.973Z,98915.41
2023-05-17T04:00:39.380Z,98913.75
2023-05-17T04:03:40.835Z,98911.25
2023-05-17T04:06:42.356Z,98915.78
2023-05-17T04:09:43.903Z,98921.94
2023-05-17T04:12:45.368Z,98922.09
2023-05-17T04:15:46.805Z,98929.84
2023-05-17T04:18:52.643Z,98929.91
2023-05-17T04:21:54.922Z,98934.44
2023-05-17T04:24:56.316Z,98925.88
2023-05-17T04:27:57.873Z,98932.81
2023-05-17T04:30:59.290Z,98932.19
2023-05-17T04:34:01.184Z,98938.22
2023-05-17T04:37:04.020Z,98938.31
2023-05-17T04:40:07.067Z,98942.75
2023-05-17T04:43:08.933Z,98941.06
2023-05-17T04:46:10.307Z,98948.25
2023-05-17T04:49:11.702Z,98943.31
2023-05-17T04:52:13.150Z,98944.44
2023-05-17T04:55:14.562Z,98952.19
2023-05-17T04:58:16.014Z,98956.84
2023-05-17T05:01:17.417Z,98954.59
2023-05-17T05:04:18.841Z,98959.47
2023-05-17T05:07:20.333Z,98959.06
2023-05-17T05:10:21.850Z,98967.13
2023-05-17T05:13:23.483Z,98970.88
2023-05-17T05:16:24.979Z,98976.19
2023-05-17T05:19:26.428Z,98981.75
2023-05-17T05:22:27.858Z,98982.56
2023-05-17T05:25:29.463Z,98990.91
2023-05-17T05:28:31.359Z,98993.34
2023-05-17T05:31:32.780Z,99008.38
2023-05-17T05:34:34.213Z,99010.38
2023-05-17T05:37:35.636Z,99017.53
2023-05-17T05:40:37.105Z,99013.38
2023-05-17T05:43:38.552Z,99016.13
2023-05-17T05:46:40.220Z,99023.91
2023-05-17T05:49:41.636Z,99039.81
2023-05-17T05:52:43.039Z,99040.41
2023-05-17T05:55:44.454Z,99048.44
2023-05-17T05:58:46.209Z,99046.22
2023-05-17T06:01:47.851Z,99060.00
2023-05-17T06:04:49.271Z,99055.25
2023-05-17T06:07:50.646Z,99072.59
2023-05-17T06:10:52.039Z,99072.66
2023-05-17T06:13:53.569Z,99083.53
2023-05-17T06:16:54.994Z,99091.34
2023-05-17T06:19:56.502Z,99086.44
2023-05-17T06:22:57.987Z,99083.16
2023-05-17T06:25:59.410Z,99082.41
2023-05-17T06:29:00.860Z,99090.41
2023-05-17T06:32:02.267Z,99102.66
2023-05-17T06:35:03.791Z,99108.13
2023-05-17T06:38:05.159Z,99117.91
2023-05-17T06:41:06.825Z,99126.13
2023-05-17T06:44:08.273Z,99150.66
2023-05-17T06:47:09.672Z,99168.50
2023-05-17T06:50:11.294Z,99173.00
2023-05-17T06:53:12.776Z,99177.53
2023-05-17T06:56:14.702Z,99180.13
2023-05-17T06:59:16.692Z,99182.91
2023-05-17T07:02:18.540Z,99184.63
2023-05-17T07:05:21.061Z,99184.66
2023-05-17T07:08:22.638Z,99188.28
2023-05-17T07:11:24.149Z,99192.59
2023-05-17T07:14:25.815Z,99199.69
2023-05-17T07:17:27.599Z,99198.03
2023-05-17T07:20:29.082Z,99205.00
2023-05-17T07:23:30.548Z,99204.25
2023-05-17T07:26:32.567Z,99206.97
2023-05-17T07:29:33.974Z,99207.09
2023-05-17T07:32:37.822Z,99210.66
2023-05-17T07:35:39.438Z,99207.13
2023-05-17T07:38:40.851Z,99211.56
2023-05-17T07:41:42.254Z,99217.81
2023-05-17T07:44:43.976Z,99219.56
2023-05-17T07:47:45.450Z,99219.53
2023-05-17T07:50:46.958Z,99223.97
2023-05-17T07:53:48.480Z,99220.53
2023-05-17T07:56:49.897Z,99227.50
2023-05-17T07:59:51.492Z,99222.25
2023-05-17T08:02:52.949Z,99222.09
2023-05-17T08:05:54.402Z,99218.81
2023-05-17T08:08:55.836Z,99222.28
2023-05-17T08:11:57.469Z,99221.41
2023-05-17T08:14:58.888Z,99224.03
2023-05-17T08:18:02.948Z,99225.78
2023-05-17T08:21:05.927Z,99217.88
2023-05-17T08:24:07.561Z,99221.34
2023-05-17T08:27:10.007Z,99228.31
2023-05-17T08:30:14.831Z,99224.69
2023-05-17T08:33:22.516Z,99225.19
2023-05-17T08:36:24.136Z,99230.03
2023-05-17T08:39:25.601Z,99229.84
2023-05-17T08:42:27.356Z,99229.34
2023-05-17T08:45:29.414Z,99223.50
2023-05-17T08:48:36.716Z,99222.81
2023-05-17T08:51:39.518Z,99215.53
2023-05-17T08:54:41.184Z,99209.75
2023-05-17T08:57:42.708Z,99210.78
2023-05-17T09:00:44.097Z,99200.31
2023-05-17T09:03:51.585Z,99205.66
2023-05-17T09:06:53.031Z,99209.97
2023-05-17T09:09:54.510Z,99208.28
2023-05-17T09:12:55.956Z,99215.31
2023-05-17T09:15:57.359Z,99223.13
2023-05-17T09:18:59.108Z,99231.00
2023-05-17T09:22:01.034Z,99221.38
2023-05-17T09:25:04.552Z,99230.13
2023-05-17T09:28:07.739Z,99221.41
2023-05-17T09:31:09.549Z,99216.13
2023-05-17T09:34:11.042Z,99226.63
2023-05-17T09:37:13.156Z,99231.81
2023-05-17T09:40:22.032Z,99228.31
2023-05-17T09:43:26.587Z,99237.84
2023-05-17T09:46:28.472Z,99229.22
2023-05-17T09:49:29.889Z,99236.94
2023-05-17T09:52:35.211Z,99228.19
2023-05-17T09:55:38.726Z,99228.88
2023-05-17T09:58:40.830Z,99226.13
2023-05-17T10:01:42.626Z,99227.66
2023-05-17T10:04:44.796Z,99231.13
2023-05-17T10:07:46.286Z,99233.00
2023-05-17T10:10:48.163Z,99236.81
2023-05-17T10:14:05.938Z,99229.97
2023-05-17T10:17:07.355Z,99230.38
2023-05-17T10:20:09.266Z,99221.66
2023-05-17T10:23:13.882Z,99218.88
2023-05-17T10:26:16.271Z,99225.13
2023-05-17T10:29:17.785Z,99220.31
2023-05-17T10:32:19.225Z,99221.41
2023-05-17T10:35:20.702Z,99225.72
2023-05-17T10:38:28.884Z,99222.97
2023-05-17T10:41:37.268Z,99226.53
2023-05-17T10:44:38.676Z,99226.53
2023-05-17T10:47:42.627Z,99224.78
2023-05-17T10:50:54.504Z,99230.16
2023-05-17T10:54:12.005Z,99234.25
2023-05-17T10:57:27.742Z,99229.25
2023-05-17T11:00:33.984Z,99228.34
2023-05-17T11:03:36.636Z,99235.41
2023-05-17T11:06:38.416Z,99230.72
2023-05-17T11:09:40.664Z,99223.44
2023-05-17T11:12:43.757Z,99222.91
2023-05-17T11:15:45.154Z,99221.56
2023-05-17T11:18:46.929Z,99239.44
2023-05-17T11:21:48.474Z,99228.16
2023-05-17T11:24:51.187Z,99227.25
2023-05-17T11:27:52.646Z,99221.16
2023-05-17T11:30:57.816Z,99212.25
2023-05-17T11:34:00.491Z,99219.00
2023-05-17T11:37:03.013Z,99220.66
2023-05-17T11:40:07.867Z,99222.81
2023-05-17T11:43:12.818Z,99209.47
2023-05-17T11:46:21.129Z,99215.09
2023-05-17T11:49:34.303Z,99205.44
2023-05-17T11:52:37.039Z,99213.44
2023-05-17T11:55:39.113Z,99211.78
2023-05-17T11:58:40.550Z,99219.44
2023-05-17T12:01:42.488Z,99215.53
2023-05-17T12:04:44.007Z,99212.84
2023-05-17T12:07:45.965Z,99214.78
2023-05-17T12:10:48.093Z,99214.19
2023-05-17T12:13:51.957Z,99213.22
2023-05-17T12:16:53.784Z,99212.34
2023-05-17T12:19:55.473Z,99209.25
2023-05-17T12:22:57.253Z,99213.34
2023-05-17T12:26:05.551Z,99212.31
2023-05-17T12:29:07.007Z,99210.22
2023-05-17T12:32:08.748Z,99208.97
2023-05-17T12:35:11.892Z,99212.78
2023-05-17T12:38:13.699Z,99204.75
2023-05-17T12:41:15.530Z,99213.50
2023-05-17T12:44:17.202Z,99196.47
2023-05-17T12:47:18.723Z,99199.34
2023-05-17T12:50:28.440Z,99202.03
2023-05-17T12:53:35.601Z,99198.66
2023-05-17T12:56:37.062Z,99199.50
2023-05-17T12:59:46.219Z,99194.94
2023-05-17T13:02:47.782Z,99202.63
2023-05-17T13:05:57.657Z,99208.78
2023-05-17T13:08:59.978Z,99210.41
2023-05-17T13:12:02.150Z,99201.34
2023-05-17T13:15:06.644Z,99205.50
2023-05-17T13:18:16.060Z,99197.78
2023-05-17T13:21:17.945Z,99198.81
2023-05-17T13:24:19.459Z,99197.22
2023-05-17T13:27:20.956Z,99200.59
2023-05-17T13:30:22.428Z,99194.59
2023-05-17T13:33:24.579Z,99191.81
2023-05-17T13:36:26.124Z,99187.19
2023-05-17T13:39:27.550Z,99190.59
2023-05-17T13:42:29.268Z,99187.91
2023-05-17T13:45:30.790Z,99180.47
2023-05-17T13:48:32.367Z,99185.88
2023-05-17T13:51:34.864Z,99185.94
2023-05-17T13:54:37.728Z,99194.69
2023-05-17T13:57:39.148Z,99187.19
2023-05-17T14:00:43.948Z,99188.72
2023-05-17T14:03:46.035Z,99197.66
2023-05-17T14:06:49.224Z,99197.72
2023-05-17T14:09:51.532Z,99186.59
2023-05-17T14:12:52.911Z,99182.78
2023-05-17T14:15:54.353Z,99185.06
2023-05-17T14:18:55.919Z,99187.03
2023-05-17T14:21:57.409Z,99179.25
2023-05-17T14:24:58.812Z,99174.25
2023-05-17T14:28:00.302Z,99170.84
2023-05-17T14:31:01.697Z,99173.63
2023-05-17T14:34:03.937Z,99172.66
2023-05-17T14:37:05.445Z,99178.06
2023-05-17T14:40:07.230Z,99167.84
2023-05-17T14:43:08.680Z,99173.31
2023-05-17T14:46:10.190Z,99172.41
2023-05-17T14:49:11.759Z,99176.06
2023-05-17T14:52:13.278Z,99170.41
2023-05-17T14:55:16.514Z,99174.75
2023-05-17T14:58:17.962Z,99184.69
2023-05-17T15:01:19.410Z,99172.94
2023-05-17T15:04:21.011Z,99178.13
2023-05-17T15:07:22.425Z,99180.63
2023-05-17T15:10:23.880Z,99179.41
2023-05-17T15:13:25.286Z,99183.22
2023-05-17T15:16:26.778Z,99182.09
2023-05-17T15:19:28.511Z,99191.13
2023-05-17T15:22:29.973Z,99183.47
2023-05-17T15:25:31.592Z,99188.72
2023-05-17T15:28:33.162Z,99185.25
2023-05-17T15:31:34.531Z,99187.06
2023-05-17T15:34:36.593Z,99189.81
2023-05-17T15:37:38.037Z,99192.56
2023-05-17T15:40:39.470Z,99185.56
2023-05-17T15:43:41.540Z,99186.53
2023-05-17T15:46:42.924Z,99195.38
2023-05-17T15:49:44.301Z,99186.59
2023-05-17T15:52:47.553Z,99194.50
2023-05-17T15:55:52.172Z,99180.53
2023-05-17T15:58:53.666Z,99177.88
2023-05-17T16:01:55.077Z,99183.84
2023-05-17T16:04:56.475Z,99176.56
2023-05-17T16:07:57.865Z,99177.72
2023-05-17T16:11:01.414Z,99190.00
2023-05-17T16:14:03.694Z,99191.03
2023-05-17T16:17:05.101Z,99196.34
2023-05-17T16:20:07.086Z,99194.59
2023-05-17T16:23:08.548Z,99191.97
2023-05-17T16:26:10.052Z,99192.06
2023-05-17T16:29:13.684Z,99188.56
2023-05-17T16:32:15.067Z,99183.38
2023-05-17T16:35:22.492Z,99191.19
2023-05-17T16:38:25.110Z,99182.16
2023-05-17T16:41:26.835Z,99186.47
2023-05-17T16:44:28.211Z,99178.63
2023-05-17T16:47:29.736Z,99180.50
2023-05-17T16:50:31.520Z,99185.06
2023-05-17T16:53:33.202Z,99192.97
2023-05-17T16:56:34.602Z,99187.66
2023-05-17T16:59:36.127Z,99190.22
2023-05-17T17:02:37.548Z,99187.63
2023-05-17T17:05:39.031Z,99183.25
2023-05-17T17:08:41.764Z,99184.16
2023-05-17T17:11:43.293Z,99178.78
2023-05-17T17:14:45.036Z,99185.88
2023-05-17T17:17:46.794Z,99186.81
2023-05-17T17:20:48.198Z,99180.72
2023-05-17T17:23:50.188Z,99181.63
2023-05-17T17:26:51.683Z,99180.75
2023-05-17T17:29:55.228Z,99179.78
2023-05-17T17:32:56.854Z,99185.06
2023-05-17T17:35:58.344Z,99183.25
2023-05-17T17:38:59.756Z,99180.72
2023-05-17T17:42:01.838Z,99184.16
2023-05-17T17:45:03.289Z,99186.91
2023-05-17T17:48:04.711Z,99190.44
2023-05-17T17:51:06.125Z,99191.34
2023-05-17T17:54:08.375Z,99194.00
2023-05-17T17:57:09.799Z,99194.91
2023-05-17T18:00:12.750Z,99192.31
2023-05-17T18:03:14.214Z,99196.81
2023-05-17T18:06:16.222Z,99203.84
2023-05-17T18:09:17.639Z,99198.53
2023-05-17T18:12:19.080Z,99189.81
2023-05-17T18:15:20.492Z,99196.94
2023-05-17T18:18:21.910Z,99186.44
2023-05-17T18:21:23.412Z,99196.91
2023-05-17T18:24:24.902Z,99190.81
2023-05-17T18:27:26.450Z,99196.94
2023-05-17T18:30:28.029Z,99190.84
2023-05-17T18:33:29.591Z,99196.09
2023-05-17T18:36:31.154Z,99197.88
2023-05-17T18:39:32.563Z,99203.13
2023-05-17T18:42:33.980Z,99188.25
2023-05-17T18:45:36.492Z,99188.22
2023-05-17T18:48:39.098Z,99189.09
2023-05-17T18:51:40.582Z,99188.22
2023-05-17T18:54:42.011Z,99196.03
2023-05-17T18:57:43.537Z,99202.94
2023-05-17T19:00:48.076Z,99202.88
2023-05-17T19:03:55.359Z,99200.16
2023-05-17T19:06:56.786Z,99199.25
2023-05-17T19:09:58.152Z,99213.97
2023-05-17T19:12:59.806Z,99215.59
2023-05-17T19:16:02.926Z,99211.03
2023-05-17T19:19:04.360Z,99211.00
2023-05-17T19:22:05.833Z,99205.75
2023-05-17T19:25:07.506Z,99207.19
2023-05-17T19:28:08.897Z,99203.81
2023-05-17T19:31:10.343Z,99216.75
2023-05-17T19:34:13.564Z,99214.97
2023-05-17T19:37:14.966Z,99217.63
2023-05-17T19:40:18.846Z,99221.84
2023-05-17T19:43:20.275Z,99216.47
2023-05-17T19:46:21.774Z,99225.19
2023-05-17T19:49:23.301Z,99222.50
2023-05-17T19:52:24.724Z,99223.28
2023-05-17T19:55:29.834Z,99221.41
2023-05-17T19:58:31.767Z,99216.81
2023-05-17T20:01:33.198Z,99221.75
2023-05-17T20:04:34.607Z,99224.22
2023-05-17T20:07:36.106Z,99218.59
2023-05-17T20:10:37.623Z,99216.19
2023-05-17T21:51:12.601Z,99164.81
2023-05-17T22:13:46.945Z,99136.19
2023-05-17T22:25:39.866Z,99132.41
2023-05-17T22:28:46.332Z,99127.25
2023-05-17T22:36:17.804Z,99134.59
2023-05-17T22:44:20.019Z,99131.59
2023-05-17T22:48:04.253Z,99125.69
2023-05-17T22:59:03.652Z,99125.97
2023-05-17T23:01:15.499Z,99119.34
2023-05-17T23:02:26.861Z,99126.81
2023-05-17T23:06:05.052Z,99133.38
2023-05-17T23:16:50.327Z,99120.41
2023-05-17T23:20:10.724Z,99115.94
2023-05-17T23:20:40.266Z,99127.41
2023-05-17T23:23:35.978Z,99110.28
2023-05-17T23:26:40.410Z,99105.38
2023-05-17T23:33:35.822Z,99103.69
2023-05-17T23:36:50.303Z,99106.84
2023-05-17T23:40:06.772Z,99099.84
2023-05-17T23:47:05.208Z,99083.09
2023-05-17T23:50:21.545Z,99078.72
2023-05-17T23:53:30.295Z,99072.25
2023-05-17T23:56:47.744Z,99070.56
